Time;durP1;ratioP1;P1;durP2;ratioP2;P2;SDS_P1;SDS_P2;PMS_P1;PMS_P2;Temp;Humidity;BMP_temperature;BMP_pressure;BME280_temperature;BME280_humidity;BME280_pressure;Samples;Min_cycle;Max_cycle;Signal;HPM_P1;HPM_P2
2021/12/21 00:00:35;;;;;;;353.77;332.47;;;;;;;2.20;65.12;95010.97;4993859;28;20181;-77
2021/12/21 00:03:00;;;;;;;243.67;229.73;;;;;;;2.04;65.18;94996.16;4993554;28;20757;-78
2021/12/21 00:05:29;;;;;;;260.77;245.40;;;;;;;2.16;64.58;95015.66;4993767;28;20260;-79
2021/12/21 00:07:58;;;;;;;248.83;235.10;;;;;;;2.16;64.21;95004.50;4993433;28;20181;-78
2021/12/21 00:10:27;;;;;;;330.70;311.90;;;;;;;2.22;64.56;95019.44;4993592;28;20181;-77
2021/12/21 00:18:01;;;;;;;196.10;184.80;;;;;;;2.20;64.96;95026.56;4993285;28;20184;-78
2021/12/21 00:33:54;;;;;;;1999.90;999.90;;;;;;;2.03;65.91;95014.47;4976034;28;20271;-77
2021/12/21 00:36:23;;;;;;;142.93;134.17;;;;;;;2.19;65.90;95037.91;4992686;28;20263;-77
2021/12/21 00:38:51;;;;;;;1999.90;999.90;;;;;;;2.12;65.89;95039.50;4991837;28;20193;-77
2021/12/21 00:41:17;;;;;;;1999.90;999.90;;;;;;;1.98;65.55;95019.31;4993121;28;20201;-77
2021/12/21 00:43:43;;;;;;;1999.90;999.90;;;;;;;2.17;65.89;95045.84;4992911;28;20245;-77
2021/12/21 00:46:12;;;;;;;1999.90;999.90;;;;;;;2.22;65.63;95048.00;4993191;28;20184;-77
2021/12/21 00:48:47;;;;;;;1999.90;999.90;;;;;;;2.17;65.43;95042.44;4992992;28;20181;-77
2021/12/21 00:51:12;;;;;;;1999.90;999.90;;;;;;;2.21;65.57;95059.34;4993208;28;20172;-77
2021/12/21 00:53:39;;;;;;;1999.90;999.90;;;;;;;2.25;65.67;95063.25;4992969;28;20253;-77
2021/12/21 00:56:05;;;;;;;1999.90;999.90;;;;;;;2.10;65.81;95050.03;4990451;28;20181;-78
2021/12/21 00:58:30;;;;;;;1999.90;999.90;;;;;;;2.11;66.23;95038.69;4993045;28;20188;-77
2021/12/21 01:00:57;;;;;;;1999.90;999.90;;;;;;;2.18;66.32;95052.69;4992664;28;20669;-77
2021/12/21 01:03:22;;;;;;;1999.90;999.90;;;;;;;2.22;66.20;95055.78;4992639;28;20283;-77
2021/12/21 01:06:02;;;;;;;1999.90;999.90;;;;;;;2.22;65.25;95055.78;4992977;28;20243;-77
2021/12/21 01:08:30;;;;;;;1999.90;999.90;;;;;;;2.09;64.69;95063.16;4992443;28;20191;-76
2021/12/21 01:11:13;;;;;;;706.80;370.90;;;;;;;2.08;64.90;95044.19;4992722;28;20185;-77
2021/12/21 01:18:54;;;;;;;1999.90;999.90;;;;;;;2.06;64.73;95053.94;4992295;28;20718;-78
2021/12/21 01:21:24;;;;;;;1999.90;999.90;;;;;;;1.92;65.02;95022.50;4992611;28;20181;-77
2021/12/21 01:26:24;;;;;;;1999.90;999.90;;;;;;;1.93;66.37;95055.28;4992761;28;20177;-77
2021/12/21 01:31:39;;;;;;;7.70;7.03;;;;;;;1.74;66.33;95051.91;4987829;28;20233;-77
2021/12/21 01:36:40;;;;;;;6.20;3.70;;;;;;;1.80;66.78;95055.72;4996278;28;20228;-78
2021/12/21 01:44:33;;;;;;;6.47;3.50;;;;;;;1.90;65.49;95056.44;4996347;28;20212;-78
2021/12/21 01:49:45;;;;;;;5.00;3.50;;;;;;;1.86;64.56;95062.88;4988325;28;20200;-77
2021/12/21 01:52:19;;;;;;;10.20;2.87;;;;;;;1.69;63.88;95046.38;4996273;28;20542;-78
2021/12/21 01:54:45;;;;;;;4.90;2.80;;;;;;;1.74;63.82;95058.91;4996066;28;20181;-78
2021/12/21 01:57:13;;;;;;;8.73;4.30;;;;;;;1.76;64.16;95052.59;4995955;28;20181;-78
2021/12/21 01:59:40;;;;;;;7.53;3.43;;;;;;;1.84;64.01;95057.03;4996077;28;20256;-78
2021/12/21 02:02:08;;;;;;;10.63;4.30;;;;;;;1.78;64.11;95053.25;4995798;28;20188;-77
2021/12/21 02:04:37;;;;;;;6.90;4.20;;;;;;;1.61;63.45;95033.38;4995607;28;20197;-77
2021/12/21 02:07:04;;;;;;;14.47;13.23;;;;;;;1.75;64.40;95055.34;4996218;28;20177;-78
2021/12/21 02:09:38;;;;;;;1999.90;999.90;;;;;;;1.72;64.13;95048.69;4995677;28;20893;-77
2021/12/21 02:12:05;;;;;;;1999.90;999.90;;;;;;;1.78;63.86;95055.84;4996112;28;20185;-77
2021/12/21 02:14:31;;;;;;;1999.90;999.90;;;;;;;1.72;63.21;95051.28;4995760;28;20176;-76
2021/12/21 02:17:31;;;;;;;1999.90;999.90;;;;;;;1.77;63.79;95050.81;4995891;28;20181;-77
2021/12/21 02:22:43;;;;;;;1999.90;999.90;;;;;;;1.72;62.91;95051.28;4995640;28;20261;-77
2021/12/21 02:30:25;;;;;;;1999.90;999.90;;;;;;;1.71;62.30;95059.22;4995834;28;20181;-77
2021/12/21 02:32:52;;;;;;;1999.90;999.90;;;;;;;1.71;63.13;95067.00;4995407;28;20182;-77
2021/12/21 02:35:18;;;;;;;1376.97;707.70;;;;;;;1.70;62.19;95063.59;4995021;28;20225;-77
2021/12/21 02:37:44;;;;;;;314.63;295.67;;;;;;;1.70;61.93;95068.78;4994514;28;20181;-77
2021/12/21 02:40:10;;;;;;;344.23;323.93;;;;;;;1.46;62.25;95037.47;4993877;28;20212;-76
2021/12/21 02:42:36;;;;;;;295.30;279.13;;;;;;;1.57;61.92;95050.19;4994810;28;20177;-77
2021/12/21 02:45:01;;;;;;;378.57;356.70;;;;;;;1.72;61.62;95064.25;4995337;28;20184;-77
2021/12/21 02:47:27;;;;;;;413.53;390.43;;;;;;;1.68;61.60;95070.69;4995209;28;20188;-76
2021/12/21 02:49:52;;;;;;;412.90;389.93;;;;;;;1.57;62.07;95050.19;4995300;28;20556;-77
2021/12/21 02:52:18;;;;;;;396.17;374.23;;;;;;;1.66;62.25;95072.63;4995095;28;20256;-77
2021/12/21 02:54:43;;;;;;;385.67;364.63;;;;;;;1.53;62.65;95061.84;4994950;28;20190;-77
2021/12/21 02:57:08;;;;;;;322.03;301.90;;;;;;;1.62;62.77;95060.94;4994625;28;20196;-77
2021/12/21 02:59:34;;;;;;;293.83;279.07;;;;;;;1.65;62.93;95073.59;4994778;28;20181;-77
2021/12/21 03:01:59;;;;;;;401.73;379.40;;;;;;;1.55;62.70;95064.28;4995120;28;20205;-77
2021/12/21 03:04:25;;;;;;;316.30;298.23;;;;;;;1.60;62.74;95068.03;4995167;28;20242;-78
2021/12/21 03:09:42;;;;;;;270.37;256.77;;;;;;;1.62;63.08;95079.09;4994435;28;20207;-76
2021/12/21 03:14:49;;;;;;;357.60;338.63;;;;;;;1.54;63.05;95068.66;4994246;28;20220;-75
2021/12/21 03:17:14;;;;;;;231.93;220.10;;;;;;;1.64;63.25;95084.13;4994315;28;20189;-76
2021/12/21 03:19:40;;;;;;;307.90;292.43;;;;;;;1.45;62.88;95070.38;4994263;28;20185;-76
2021/12/21 03:22:07;;;;;;;260.47;247.67;;;;;;;1.55;63.43;95083.25;4993751;28;20216;-75
2021/12/21 03:24:34;;;;;;;285.57;269.33;;;;;;;1.49;63.90;95081.25;4993610;28;20201;-76
2021/12/21 03:27:00;;;;;;;292.60;277.60;;;;;;;1.46;64.07;95082.38;4993764;28;20192;-75
2021/12/21 03:29:27;;;;;;;287.23;272.07;;;;;;;1.33;64.50;95052.59;4993845;28;20177;-76
2021/12/21 03:31:53;;;;;;;269.63;255.60;;;;;;;1.50;64.90;95075.91;4993709;28;20189;-76
2021/12/21 03:34:19;;;;;;;282.07;267.67;;;;;;;1.49;64.69;95076.06;4993807;28;20663;-76
2021/12/21 03:36:44;;;;;;;261.03;246.70;;;;;;;1.53;64.50;95080.00;4993555;28;20216;-76
2021/12/21 03:39:17;;;;;;;203.47;193.13;;;;;;;1.55;64.11;95080.66;4993807;28;20239;-76
2021/12/21 03:41:46;;;;;;;247.33;234.87;;;;;;;1.54;62.94;95083.41;4993603;28;20245;-76
2021/12/21 03:44:12;;;;;;;402.10;378.20;;;;;;;1.57;63.41;95093.47;4993380;28;20200;-76
2021/12/21 03:46:47;;;;;;;408.10;383.03;;;;;;;1.69;63.19;95098.28;4989691;28;20177;-77
2021/12/21 03:50:03;;;;;;;425.97;401.00;;;;;;;1.51;62.35;95071.53;4992031;28;20676;-77
2021/12/21 03:52:05;;;;;;;417.70;394.73;;;;;;;1.64;63.07;95092.75;4985016;28;20280;-77
2021/12/21 03:54:31;;;;;;;335.03;317.37;;;;;;;1.66;62.62;95095.16;4991702;28;20655;-77
2021/12/21 03:56:57;;;;;;;428.97;404.97;;;;;;;1.69;62.56;95110.44;4992846;28;21017;-77
2021/12/21 03:59:23;;;;;;;503.43;472.87;;;;;;;1.53;63.22;95077.41;4993403;28;20185;-77
2021/12/21 04:01:49;;;;;;;470.20;441.50;;;;;;;1.80;62.57;95113.63;4993027;28;20251;-77
2021/12/21 04:04:19;;;;;;;451.43;425.00;;;;;;;1.68;62.22;95101.84;4992961;28;20205;-77
2021/12/21 04:06:46;;;;;;;431.10;406.97;;;;;;;1.72;62.12;95102.34;4993405;28;20260;-77
2021/12/21 04:09:12;;;;;;;506.10;477.13;;;;;;;1.72;62.28;95117.94;4993114;28;20204;-78
2021/12/21 04:11:38;;;;;;;442.50;417.10;;;;;;;1.70;61.71;95110.28;4993386;28;20650;-77
2021/12/21 04:14:04;;;;;;;449.30;422.30;;;;;;;1.77;61.82;95123.47;4993597;28;20173;-78
2021/12/21 04:16:29;;;;;;;538.37;506.53;;;;;;;1.77;61.43;95111.31;4993033;28;20181;-77
2021/12/21 04:18:55;;;;;;;418.43;396.50;;;;;;;1.74;61.86;95119.38;4993099;28;20266;-77
2021/12/21 04:21:21;;;;;;;423.47;402.07;;;;;;;1.81;60.74;95123.03;4991368;28;20557;-77
2021/12/21 04:23:47;;;;;;;528.77;497.80;;;;;;;1.80;60.92;95125.78;4992463;28;20205;-77
2021/12/21 04:26:14;;;;;;;563.93;530.93;;;;;;;1.78;61.66;95130.28;4993232;28;20226;-77
2021/12/21 04:28:40;;;;;;;571.67;537.10;;;;;;;1.77;61.35;95126.88;4988478;28;20634;-78
2021/12/21 04:31:07;;;;;;;548.40;516.53;;;;;;;1.66;61.17;95108.94;4993148;28;20181;-78
2021/12/21 04:33:33;;;;;;;543.93;511.13;;;;;;;1.63;61.90;95104.06;4992930;28;20634;-77
2021/12/21 04:36:00;;;;;;;485.27;458.13;;;;;;;1.67;61.16;95115.75;4992196;28;20773;-78
2021/12/21 04:38:34;;;;;;;554.07;522.93;;;;;;;1.61;61.63;95100.81;4992996;28;20189;-78
2021/12/21 04:41:10;;;;;;;532.73;502.77;;;;;;;1.48;60.85;95092.56;4992553;28;20243;-78
2021/12/21 04:43:36;;;;;;;428.53;405.80;;;;;;;1.63;60.75;95130.03;4988199;28;20776;-79
2021/12/21 04:46:01;;;;;;;467.20;440.80;;;;;;;1.42;60.92;95106.97;5007342;28;20181;-80
2021/12/21 04:48:27;;;;;;;475.83;450.00;;;;;;;1.44;60.66;95109.41;4992709;28;20181;-77
2021/12/21 04:50:53;;;;;;;477.33;449.97;;;;;;;1.57;60.86;95132.38;4992212;28;20193;-79
2021/12/21 04:53:19;;;;;;;477.70;450.67;;;;;;;1.52;60.54;95138.84;4992423;28;20234;-78
2021/12/21 04:55:45;;;;;;;447.70;422.77;;;;;;;1.50;60.69;95134.75;4992697;28;20189;-78
2021/12/21 04:58:10;;;;;;;477.63;451.03;;;;;;;1.43;60.56;95144.91;4992309;28;20184;-77
2021/12/21 05:00:37;;;;;;;474.57;448.13;;;;;;;1.41;60.67;95139.03;4988843;28;20236;-76
2021/12/21 05:03:02;;;;;;;427.47;404.77;;;;;;;1.33;60.78;95148.53;4991263;28;20205;-77
2021/12/21 05:05:28;;;;;;;459.63;435.13;;;;;;;1.26;61.08;95150.09;4991099;28;20268;-76
2021/12/21 05:08:06;;;;;;;478.07;452.60;;;;;;;1.22;61.20;95151.31;4992061;28;20184;-76
2021/12/21 05:10:34;;;;;;;441.43;418.00;;;;;;;1.18;60.95;95155.19;4991344;28;20184;-76
2021/12/21 05:12:59;;;;;;;515.47;487.13;;;;;;;1.18;61.21;95161.19;4991242;28;20246;-77
2021/12/21 05:15:25;;;;;;;585.50;551.20;;;;;;;1.14;61.75;95141.69;4991306;28;20180;-76
2021/12/21 05:17:50;;;;;;;452.10;427.07;;;;;;;1.09;61.50;95149.91;4991755;28;20189;-76
2021/12/21 05:20:16;;;;;;;508.60;479.60;;;;;;;1.20;61.65;95159.28;4991473;28;20821;-76
2021/12/21 05:22:41;;;;;;;525.40;495.63;;;;;;;1.03;61.24;95153.09;4990842;28;20180;-76
2021/12/21 05:25:07;;;;;;;348.70;330.53;;;;;;;0.92;61.81;95155.88;4990762;28;20187;-77
2021/12/21 05:27:32;;;;;;;420.43;397.53;;;;;;;1.03;61.75;95167.81;4990825;28;20212;-76
2021/12/21 05:29:58;;;;;;;271.13;255.30;;;;;;;0.98;62.74;95170.03;4990296;28;20877;-79
2021/12/21 05:32:23;;;;;;;334.83;317.20;;;;;;;0.79;62.55;95132.06;4990980;28;20235;-78
2021/12/21 05:34:49;;;;;;;246.13;231.17;;;;;;;1.00;62.81;95161.16;4989332;28;20177;-77
2021/12/21 05:37:14;;;;;;;362.63;342.90;;;;;;;0.78;63.10;95121.88;4986495;28;20731;-76
2021/12/21 05:40:00;;;;;;;321.83;304.10;;;;;;;1.00;63.58;95168.09;4990356;28;20185;-77
2021/12/21 05:42:26;;;;;;;267.60;252.63;;;;;;;0.95;63.41;95176.28;4992258;28;20169;-77
2021/12/21 05:44:52;;;;;;;332.90;315.40;;;;;;;0.92;63.45;95163.66;4991885;28;20658;-78
2021/12/21 05:47:18;;;;;;;493.67;465.33;;;;;;;1.00;63.87;95165.50;4991961;28;20181;-78
2021/12/21 05:49:44;;;;;;;406.03;383.83;;;;;;;1.05;64.12;95165.88;4992499;28;20185;-77
2021/12/21 05:52:10;;;;;;;499.93;464.57;;;;;;;1.18;64.57;95170.75;4992143;28;20251;-78
2021/12/21 05:54:35;;;;;;;300.50;284.23;;;;;;;1.05;63.03;95179.66;4992129;28;20212;-78
2021/12/21 05:57:02;;;;;;;409.67;386.57;;;;;;;1.07;63.98;95179.53;4992121;28;20231;-78
2021/12/21 05:59:28;;;;;;;376.13;355.53;;;;;;;0.93;64.67;95159.28;4991495;28;20673;-78
2021/12/21 06:01:56;;;;;;;458.93;430.27;;;;;;;0.98;65.46;95175.19;4991655;28;20177;-79
2021/12/21 06:04:23;;;;;;;333.00;313.17;;;;;;;1.02;65.40;95192.94;4991918;28;20193;-78
2021/12/21 06:06:48;;;;;;;258.30;244.47;;;;;;;0.95;64.80;95202.22;4992256;28;20430;-80
2021/12/21 06:09:15;;;;;;;162.20;153.57;;;;;;;0.91;65.05;95190.50;4992075;28;20256;-78
2021/12/21 06:11:48;;;;;;;733.93;396.40;;;;;;;0.97;65.38;95195.13;4991034;28;20184;-78
2021/12/21 06:14:37;;;;;;;1999.90;999.90;;;;;;;1.15;64.65;95202.94;4992336;28;20177;-78
2021/12/21 06:27:49;;;;;;;463.70;436.83;;;;;;;1.27;65.30;95224.31;4995709;28;20660;-79
2021/12/21 06:30:16;;;;;;;435.93;409.70;;;;;;;1.22;65.68;95229.09;4995539;28;20182;-79
2021/12/21 06:32:42;;;;;;;437.23;411.23;;;;;;;1.27;65.27;95245.88;4987019;28;20211;-79
2021/12/21 06:35:08;;;;;;;320.23;302.37;;;;;;;1.15;64.81;95249.59;4995365;28;20627;-78
2021/12/21 06:37:34;;;;;;;400.37;375.43;;;;;;;1.22;65.60;95253.25;4995277;28;20253;-79
2021/12/21 06:39:59;;;;;;;372.70;350.00;;;;;;;1.29;65.56;95256.09;4994941;28;20189;-79
2021/12/21 06:42:27;;;;;;;406.00;381.70;;;;;;;0.95;65.14;95216.97;4995343;28;20732;-80
2021/12/21 06:44:57;;;;;;;415.60;389.23;;;;;;;1.26;65.54;95261.56;4995315;28;20201;-79
2021/12/21 06:52:58;;;;;;;232.30;219.23;;;;;;;2.04;64.39;95270.50;4995065;28;20564;-79
2021/12/21 06:55:23;;;;;;;1999.90;999.90;;;;;;;2.46;62.08;95258.53;4995217;28;20177;-79
2021/12/21 06:57:49;;;;;;;1389.83;719.53;;;;;;;2.96;60.79;95271.69;4994590;28;20195;-80
2021/12/21 07:00:19;;;;;;;434.53;406.80;;;;;;;2.98;60.09;95272.34;4994438;28;20666;-80
2021/12/21 07:02:45;;;;;;;472.63;444.97;;;;;;;3.30;59.65;95273.47;4994571;28;20185;-80
2021/12/21 07:05:11;;;;;;;414.93;390.50;;;;;;;4.01;57.59;95275.66;4994928;28;20187;-79
2021/12/21 07:07:37;;;;;;;292.23;275.00;;;;;;;4.48;55.64;95231.56;4995151;28;20542;-79
2021/12/21 07:10:07;;;;;;;256.67;240.00;;;;;;;5.31;53.69;95289.44;4995259;28;20685;-79
2021/12/21 07:18:12;;;;;;;10.47;5.47;;;;;;;4.35;54.47;95276.34;4994849;28;20191;-79
2021/12/21 07:20:38;;;;;;;10.87;5.97;;;;;;;4.47;55.35;95280.28;4988656;28;20196;-79
2021/12/21 07:23:04;;;;;;;8.77;5.60;;;;;;;5.06;53.37;95253.97;4994454;28;20204;-79
2021/12/21 07:25:30;;;;;;;21.13;7.80;;;;;;;6.99;50.09;95293.03;4994108;28;20251;-79
2021/12/21 07:27:56;;;;;;;12.07;5.30;;;;;;;9.30;44.03;95285.13;4993438;28;20177;-79
2021/12/21 07:30:22;;;;;;;10.10;5.70;;;;;;;9.75;41.78;95284.59;4994199;28;20184;-79
2021/12/21 07:32:47;;;;;;;7.80;4.50;;;;;;;9.88;41.37;95291.72;4992998;28;20569;-79
2021/12/21 07:35:13;;;;;;;10.67;5.87;;;;;;;11.09;39.38;95280.28;4993570;28;20185;-78
2021/12/21 07:37:39;;;;;;;13.23;6.10;;;;;;;11.83;36.52;95287.91;4993307;28;20240;-78
2021/12/21 07:40:06;;;;;;;10.37;5.07;;;;;;;12.88;34.44;95283.94;4993735;28;20181;-78
2021/12/21 07:42:31;;;;;;;12.53;5.90;;;;;;;13.80;31.42;95264.59;4992067;28;20217;-79
2021/12/21 07:44:58;;;;;;;10.47;4.77;;;;;;;15.16;29.84;95287.06;4993308;28;20204;-78
2021/12/21 07:47:23;;;;;;;9.17;4.77;;;;;;;15.95;28.00;95273.25;4994478;28;20165;-78
2021/12/21 07:49:49;;;;;;;9.23;5.60;;;;;;;16.81;26.70;95250.22;4994125;28;20543;-78
2021/12/21 07:52:16;;;;;;;6.43;3.50;;;;;;;15.75;27.60;95267.50;4993774;28;20662;-79
2021/12/21 07:54:42;;;;;;;5.40;3.87;;;;;;;15.96;27.74;95282.84;4993603;28;20196;-78
2021/12/21 07:57:08;;;;;;;7.10;4.33;;;;;;;17.03;26.67;95276.94;4993900;28;20181;-79
2021/12/21 07:59:35;;;;;;;7.47;3.97;;;;;;;17.05;25.79;95277.50;4993907;28;20200;-79
2021/12/21 08:02:00;;;;;;;3.97;2.53;;;;;;;15.84;25.95;95287.34;4993596;28;20601;-78
2021/12/21 08:04:28;;;;;;;9.20;4.27;;;;;;;13.73;28.87;95295.63;4993518;28;20259;-78
2021/12/21 08:06:57;;;;;;;11.10;4.73;;;;;;;13.11;31.08;95299.22;4993626;28;20188;-79
2021/12/21 08:09:26;;;;;;;13.90;7.33;;;;;;;11.94;31.55;95302.25;4993534;28;20251;-78
2021/12/21 08:14:36;;;;;;;7.07;4.30;;;;;;;10.26;35.07;95296.56;4992989;28;20258;-77
2021/12/21 08:17:01;;;;;;;6.93;4.57;;;;;;;9.13;36.88;95300.38;4993213;28;20721;-78
2021/12/21 08:19:27;;;;;;;8.50;4.60;;;;;;;8.81;38.12;95314.06;4993034;28;20954;-78
2021/12/21 08:21:52;;;;;;;11.50;4.20;;;;;;;7.31;40.10;95314.66;4993219;28;20185;-77
2021/12/21 08:24:18;;;;;;;12.00;5.60;;;;;;;6.31;43.39;95322.63;4993239;28;20197;-77
2021/12/21 08:26:43;;;;;;;12.43;5.63;;;;;;;5.73;44.07;95330.91;4993140;28;20200;-77
2021/12/21 08:29:09;;;;;;;7.27;4.17;;;;;;;5.07;45.56;95292.09;4991806;28;20220;-77
2021/12/21 08:31:34;;;;;;;13.67;6.57;;;;;;;4.84;46.21;95328.50;4992920;28;20216;-77
2021/12/21 08:34:00;;;;;;;18.60;8.47;;;;;;;4.83;48.34;95322.47;4993296;28;20177;-78
2021/12/21 08:36:25;;;;;;;18.03;8.73;;;;;;;5.57;47.63;95329.16;4993017;28;20184;-78
2021/12/21 08:38:51;;;;;;;16.03;8.17;;;;;;;6.12;44.79;95330.13;4993140;28;20263;-76
2021/12/21 08:41:16;;;;;;;14.37;7.60;;;;;;;6.05;44.60;95335.22;4992406;28;20200;-76
2021/12/21 08:43:42;;;;;;;12.03;5.97;;;;;;;6.45;44.21;95331.56;4992192;28;20201;-77
2021/12/21 08:46:08;;;;;;;13.37;6.73;;;;;;;6.72;43.82;95336.28;4992591;28;20599;-77
2021/12/21 08:48:34;;;;;;;18.60;5.70;;;;;;;7.09;42.73;95335.44;4992707;28;20174;-75
2021/12/21 08:51:00;;;;;;;5.07;3.10;;;;;;;7.32;41.21;95338.03;4992549;28;20195;-76
2021/12/21 08:53:25;;;;;;;7.23;3.40;;;;;;;7.45;40.52;95346.06;4992346;28;20171;-76
2021/12/21 08:55:53;;;;;;;8.47;3.93;;;;;;;7.31;38.98;95325.94;4992356;28;20185;-76
2021/12/21 08:58:19;;;;;;;7.93;4.33;;;;;;;6.87;39.07;95341.53;4992414;28;20982;-80
2021/12/21 09:00:44;;;;;;;8.87;4.37;;;;;;;6.27;41.85;95342.28;4992690;28;20176;-77
2021/12/21 09:03:10;;;;;;;10.20;5.00;;;;;;;6.27;41.93;95355.34;4992587;28;20197;-77
2021/12/21 09:05:36;;;;;;;11.37;4.60;;;;;;;6.06;42.41;95363.78;4992285;28;20271;-76
2021/12/21 09:08:03;;;;;;;10.47;5.27;;;;;;;6.24;42.06;95355.69;4992478;28;20176;-77
2021/12/21 09:10:30;;;;;;;8.90;5.53;;;;;;;6.46;41.58;95342.81;4992840;28;20181;-78
2021/12/21 09:12:59;;;;;;;6.97;3.30;;;;;;;6.67;40.68;95345.59;4992598;28;20596;-77
2021/12/21 09:15:26;;;;;;;12.67;4.20;;;;;;;6.71;40.42;95347.72;4986257;28;20662;-79
2021/12/21 09:17:52;;;;;;;8.10;4.70;;;;;;;6.55;40.03;95341.78;4992617;28;20631;-78
2021/12/21 09:20:20;;;;;;;12.57;5.30;;;;;;;6.57;40.64;95343.25;4992302;28;20260;-78
2021/12/21 09:22:48;;;;;;;5.60;3.47;;;;;;;6.74;42.92;95331.69;4991909;28;20177;-79
2021/12/21 09:25:15;;;;;;;4.63;3.20;;;;;;;7.07;40.80;95353.16;4992288;28;20607;-77
2021/12/21 09:27:41;;;;;;;7.43;4.00;;;;;;;7.05;39.67;95328.97;4992667;28;20201;-77
2021/12/21 09:30:10;;;;;;;7.40;4.27;;;;;;;7.30;39.55;95345.25;4992613;28;20181;-78
2021/12/21 09:32:36;;;;;;;6.57;4.10;;;;;;;7.43;39.43;95349.88;4991521;28;20181;-77
2021/12/21 09:35:02;;;;;;;7.83;3.50;;;;;;;7.32;39.78;95345.91;4990384;28;20187;-78
2021/12/21 09:37:27;;;;;;;11.23;4.50;;;;;;;7.09;40.64;95353.00;4992238;28;20216;-77
2021/12/21 09:39:55;;;;;;;7.60;3.90;;;;;;;6.76;40.55;95360.25;4992462;28;20716;-77
2021/12/21 09:42:31;;;;;;;7.17;3.43;;;;;;;6.24;41.24;95365.31;4992581;28;20181;-77
2021/12/21 09:44:57;;;;;;;10.37;3.73;;;;;;;5.33;43.16;95360.56;4992320;28;20661;-77
2021/12/21 09:47:23;;;;;;;4.80;3.10;;;;;;;4.69;45.21;95362.22;4992237;28;20177;-78
2021/12/21 09:49:49;;;;;;;6.50;3.43;;;;;;;4.60;47.33;95364.97;4992643;28;20235;-77
2021/12/21 09:52:21;;;;;;;8.43;3.70;;;;;;;4.57;46.67;95358.31;4996307;28;20617;-78
2021/12/21 09:54:47;;;;;;;10.17;4.97;;;;;;;4.46;46.76;95351.63;4996408;28;20547;-80
2021/12/21 09:57:16;;;;;;;6.43;4.00;;;;;;;4.42;47.46;95323.41;4995878;28;20689;-78
2021/12/21 09:59:42;;;;;;;5.70;3.73;;;;;;;4.60;46.61;95333.69;4996095;28;20247;-78
2021/12/21 10:02:08;;;;;;;18.73;4.13;;;;;;;4.50;45.69;95320.81;4995827;28;20192;-78
2021/12/21 10:04:51;;;;;;;10.20;5.33;;;;;;;4.61;46.53;95348.34;4995982;28;20202;-78
2021/12/21 10:07:18;;;;;;;7.90;3.43;;;;;;;4.72;45.85;95346.25;4995441;28;20177;-78
2021/12/21 10:09:46;;;;;;;10.00;5.37;;;;;;;5.00;45.90;95353.75;4995649;28;20180;-78
2021/12/21 10:12:31;;;;;;;7.73;4.50;;;;;;;4.93;45.17;95349.19;4995903;28;20301;-78
2021/12/21 10:15:26;;;;;;;8.70;4.10;;;;;;;4.79;45.52;95352.44;4989693;28;20300;-78
2021/12/21 10:17:54;;;;;;;8.33;4.13;;;;;;;4.60;45.80;95347.53;4978384;28;20189;-77
2021/12/21 10:20:34;;;;;;;6.63;2.70;;;;;;;4.06;45.40;95341.13;4995454;28;20547;-76
2021/12/21 10:23:07;;;;;;;7.93;3.70;;;;;;;3.49;47.14;95330.47;4995404;28;20184;-80
2021/12/21 10:25:57;;;;;;;7.93;4.23;;;;;;;3.30;49.22;95352.31;4995428;28;20195;-78
2021/12/21 10:28:36;;;;;;;7.53;4.10;;;;;;;3.16;50.46;95342.50;4995611;28;20189;-79
2021/12/21 10:31:06;;;;;;;4.60;2.83;;;;;;;3.01;51.49;95352.66;4995049;28;20181;-80
2021/12/21 10:33:33;;;;;;;11.20;4.50;;;;;;;3.07;52.66;95346.00;4995826;28;20180;-77
2021/12/21 10:36:01;;;;;;;12.77;5.10;;;;;;;3.19;52.39;95347.41;4994577;28;20185;-77
2021/12/21 10:38:33;;;;;;;8.60;4.73;;;;;;;3.45;52.21;95344.78;4993379;28;20356;-78
2021/12/21 10:41:16;;;;;;;5.93;3.07;;;;;;;3.70;50.79;95348.31;4993241;28;20185;-78
2021/12/21 10:43:42;;;;;;;6.40;3.30;;;;;;;3.77;48.82;95351.91;4992992;28;20200;-78
2021/12/21 10:46:09;;;;;;;7.23;3.97;;;;;;;3.55;48.93;95329.03;4992489;28;20179;-77
2021/12/21 10:48:35;;;;;;;7.43;4.40;;;;;;;3.74;49.66;95347.81;4992654;28;20169;-77
2021/12/21 10:51:03;;;;;;;9.63;5.20;;;;;;;3.63;48.78;95344.72;4993145;28;20654;-77
2021/12/21 10:53:28;;;;;;;15.07;6.80;;;;;;;3.56;48.66;95315.03;4992815;28;20272;-77
2021/12/21 10:56:21;;;;;;;15.00;5.70;;;;;;;3.81;48.12;95345.41;4994559;28;20280;-77
2021/12/21 10:58:47;;;;;;;6.80;3.40;;;;;;;3.91;46.95;95361.72;4991321;28;20216;-77
2021/12/21 11:01:19;;;;;;;10.30;4.23;;;;;;;3.77;46.82;95364.94;4991689;28;20654;-77
2021/12/21 11:03:52;;;;;;;10.23;4.50;;;;;;;3.84;47.52;95360.72;4993086;28;20279;-77
2021/12/21 11:06:24;;;;;;;8.70;4.30;;;;;;;3.79;47.15;95358.59;4992640;28;20188;-77
2021/12/21 11:08:55;;;;;;;13.47;6.70;;;;;;;3.51;47.41;95349.34;4993049;28;20188;-78
2021/12/21 11:11:32;;;;;;;12.40;5.50;;;;;;;3.39;48.67;95345.38;4991365;28;20212;-77
2021/12/21 11:14:13;;;;;;;7.57;4.07;;;;;;;3.50;49.31;95354.72;4992637;28;20590;-77
2021/12/21 11:16:42;;;;;;;7.47;3.30;;;;;;;3.49;48.25;95351.28;4990765;28;20260;-77
2021/12/21 11:19:09;;;;;;;8.43;3.83;;;;;;;3.57;47.82;95360.94;4990688;28;20577;-78
2021/12/21 11:21:35;;;;;;;6.47;3.67;;;;;;;3.34;47.61;95364.06;4991421;28;20199;-78
2021/12/21 11:24:06;;;;;;;6.73;4.50;;;;;;;3.13;48.30;95361.00;4992164;28;20201;-77
2021/12/21 11:26:32;;;;;;;7.93;4.43;;;;;;;3.02;48.91;95356.88;4992088;28;20230;-78
2021/12/21 11:29:03;;;;;;;9.73;5.20;;;;;;;2.92;47.90;95360.53;4992100;28;20611;-77
2021/12/21 11:31:29;;;;;;;13.83;6.60;;;;;;;2.65;47.85;95317.28;4992492;28;20176;-77
2021/12/21 11:33:58;;;;;;;13.40;8.07;;;;;;;2.95;48.15;95331.63;4992351;28;20537;-77
2021/12/21 11:39:08;;;;;;;19.17;7.17;;;;;;;3.33;47.22;95336.41;4992514;28;20223;-77
2021/12/21 11:41:36;;;;;;;10.03;5.37;;;;;;;3.45;46.09;95347.38;4992316;28;20616;-77
2021/12/21 11:44:21;;;;;;;7.03;3.67;;;;;;;3.62;44.55;95333.47;4991965;28;20619;-77
2021/12/21 11:47:01;;;;;;;7.63;4.27;;;;;;;3.11;43.71;95271.94;4991622;28;20231;-77
2021/12/21 11:49:51;;;;;;;9.37;4.23;;;;;;;3.18;45.20;95332.75;4992891;28;20200;-78
2021/12/21 11:52:19;;;;;;;6.10;3.90;;;;;;;3.12;45.44;95332.53;4993331;28;20204;-79
2021/12/21 11:54:50;;;;;;;6.17;4.40;;;;;;;3.13;45.58;95332.38;4993515;28;20208;-79
2021/12/21 11:57:18;;;;;;;3.93;2.43;;;;;;;3.10;45.95;95332.72;4993399;28;20173;-77
2021/12/21 11:59:45;;;;;;;4.07;2.77;;;;;;;2.72;46.62;95335.69;4993166;28;20212;-78
2021/12/21 12:02:11;;;;;;;6.03;3.07;;;;;;;2.56;47.20;95332.00;5008880;28;20185;-79
2021/12/21 12:04:40;;;;;;;5.73;3.57;;;;;;;2.58;48.06;95330.06;4993664;28;20223;-80
2021/12/21 12:07:18;;;;;;;6.17;4.03;;;;;;;2.68;48.31;95334.38;4992405;28;20181;-79
2021/12/21 12:09:45;;;;;;;8.63;4.47;;;;;;;2.63;48.67;95332.22;4992030;28;20195;-80
2021/12/21 12:12:16;;;;;;;7.17;3.87;;;;;;;2.63;48.21;95335.63;4993016;28;20220;-80
2021/12/21 12:14:47;;;;;;;8.10;4.30;;;;;;;2.73;47.74;95339.91;4993054;28;20252;-79
2021/12/21 12:17:16;;;;;;;5.50;3.33;;;;;;;2.82;46.65;95347.63;4993036;28;20704;-77
2021/12/21 12:19:51;;;;;;;5.70;3.17;;;;;;;2.66;45.80;95347.50;4991625;28;20184;-79
2021/12/21 12:22:16;;;;;;;6.77;4.27;;;;;;;2.57;46.16;95325.03;4993361;28;20172;-79
2021/12/21 12:24:45;;;;;;;4.83;3.33;;;;;;;2.87;45.82;95354.97;4992942;28;20284;-79
2021/12/21 12:27:20;;;;;;;6.70;3.87;;;;;;;2.92;45.06;95352.75;4992617;28;20177;-78
2021/12/21 12:30:22;;;;;;;8.13;3.87;;;;;;;3.11;45.10;95368.16;4989273;28;20657;-76
2021/12/21 12:33:02;;;;;;;8.97;4.90;;;;;;;3.20;45.44;95356.03;4990959;28;20209;-79
2021/12/21 12:35:34;;;;;;;8.70;5.20;;;;;;;3.32;45.28;95360.81;4992759;28;20200;-78
2021/12/21 12:38:18;;;;;;;8.17;4.07;;;;;;;3.46;45.16;95376.81;4992398;28;20275;-79
2021/12/21 12:41:03;;;;;;;9.40;5.00;;;;;;;3.50;45.09;95371.16;4992636;28;20216;-79
2021/12/21 12:43:34;;;;;;;20.87;8.37;;;;;;;3.32;45.22;95341.78;4990785;28;20200;-79
2021/12/21 12:46:05;;;;;;;13.00;6.07;;;;;;;3.50;45.60;95357.31;4992533;28;20207;-77
2021/12/21 12:48:49;;;;;;;21.43;8.80;;;;;;;3.32;44.94;95352.19;4992859;28;20255;-79